sensor_id;sensor_type;location;lat;lon;timestamp;P1;durP1;ratioP1;P2;durP2;ratioP2
11396;SDS011;5754;43.726;7.416;2023-04-25T00:00:47;11.47;;;3.83;;
11396;SDS011;5754;43.726;7.416;2023-04-25T00:03:22;11.63;;;4.20;;
11396;SDS011;5754;43.726;7.416;2023-04-25T00:05:58;9.83;;;3.63;;
11396;SDS011;5754;43.726;7.416;2023-04-25T00:08:36;10.93;;;3.60;;
11396;SDS011;5754;43.726;7.416;2023-04-25T00:11:12;13.03;;;4.07;;
11396;SDS011;5754;43.726;7.416;2023-04-25T00:13:46;11.30;;;3.47;;
11396;SDS011;5754;43.726;7.416;2023-04-25T00:16:23;11.40;;;4.10;;
11396;SDS011;5754;43.726;7.416;2023-04-25T00:18:57;9.53;;;3.50;;
11396;SDS011;5754;43.726;7.416;2023-04-25T00:21:31;12.80;;;3.37;;
11396;SDS011;5754;43.726;7.416;2023-04-25T00:24:06;12.50;;;3.57;;
11396;SDS011;5754;43.726;7.416;2023-04-25T00:26:41;10.40;;;3.67;;
11396;SDS011;5754;43.726;7.416;2023-04-25T00:29:16;8.77;;;3.20;;
11396;SDS011;5754;43.726;7.416;2023-04-25T00:31:50;10.47;;;3.77;;
11396;SDS011;5754;43.726;7.416;2023-04-25T00:34:27;9.00;;;3.93;;
11396;SDS011;5754;43.726;7.416;2023-04-25T00:37:02;9.57;;;3.73;;
11396;SDS011;5754;43.726;7.416;2023-04-25T00:39:37;8.17;;;3.33;;
11396;SDS011;5754;43.726;7.416;2023-04-25T00:42:14;8.30;;;3.27;;
11396;SDS011;5754;43.726;7.416;2023-04-25T00:44:49;12.30;;;3.40;;
11396;SDS011;5754;43.726;7.416;2023-04-25T00:47:24;9.73;;;3.63;;
11396;SDS011;5754;43.726;7.416;2023-04-25T00:49:59;13.47;;;3.40;;
11396;SDS011;5754;43.726;7.416;2023-04-25T00:52:34;11.53;;;3.43;;
11396;SDS011;5754;43.726;7.416;2023-04-25T00:55:09;12.13;;;4.10;;
11396;SDS011;5754;43.726;7.416;2023-04-25T00:57:43;9.07;;;3.33;;
11396;SDS011;5754;43.726;7.416;2023-04-25T01:00:19;8.80;;;3.27;;
11396;SDS011;5754;43.726;7.416;2023-04-25T01:02:54;11.20;;;3.60;;
11396;SDS011;5754;43.726;7.416;2023-04-25T01:05:29;13.07;;;3.47;;
11396;SDS011;5754;43.726;7.416;2023-04-25T01:08:03;11.57;;;3.40;;
11396;SDS011;5754;43.726;7.416;2023-04-25T01:10:39;15.30;;;4.13;;
11396;SDS011;5754;43.726;7.416;2023-04-25T01:13:13;13.10;;;3.90;;
11396;SDS011;5754;43.726;7.416;2023-04-25T01:18:29;18.20;;;3.80;;
11396;SDS011;5754;43.726;7.416;2023-04-25T01:21:07;13.23;;;3.53;;
11396;SDS011;5754;43.726;7.416;2023-04-25T01:23:43;12.97;;;3.80;;
11396;SDS011;5754;43.726;7.416;2023-04-25T01:26:19;18.20;;;4.53;;
11396;SDS011;5754;43.726;7.416;2023-04-25T01:28:55;12.83;;;4.17;;
11396;SDS011;5754;43.726;7.416;2023-04-25T01:31:30;16.33;;;4.50;;
11396;SDS011;5754;43.726;7.416;2023-04-25T01:34:06;16.80;;;4.60;;
11396;SDS011;5754;43.726;7.416;2023-04-25T01:36:43;17.20;;;4.10;;
11396;SDS011;5754;43.726;7.416;2023-04-25T01:39:18;15.73;;;4.13;;
11396;SDS011;5754;43.726;7.416;2023-04-25T01:41:52;12.63;;;4.00;;
11396;SDS011;5754;43.726;7.416;2023-04-25T01:44:27;15.17;;;4.10;;
11396;SDS011;5754;43.726;7.416;2023-04-25T01:47:02;14.93;;;3.83;;
11396;SDS011;5754;43.726;7.416;2023-04-25T01:49:37;14.13;;;4.37;;
11396;SDS011;5754;43.726;7.416;2023-04-25T01:52:12;17.97;;;3.93;;
11396;SDS011;5754;43.726;7.416;2023-04-25T01:54:48;10.93;;;3.80;;
11396;SDS011;5754;43.726;7.416;2023-04-25T01:57:23;11.63;;;3.63;;
11396;SDS011;5754;43.726;7.416;2023-04-25T01:59:58;13.30;;;3.93;;
11396;SDS011;5754;43.726;7.416;2023-04-25T02:02:45;16.53;;;4.00;;
11396;SDS011;5754;43.726;7.416;2023-04-25T02:05:26;13.93;;;3.80;;
11396;SDS011;5754;43.726;7.416;2023-04-25T02:08:02;14.43;;;4.00;;
11396;SDS011;5754;43.726;7.416;2023-04-25T02:10:38;17.13;;;3.93;;
11396;SDS011;5754;43.726;7.416;2023-04-25T02:13:25;11.67;;;3.87;;
11396;SDS011;5754;43.726;7.416;2023-04-25T02:16:09;12.57;;;4.03;;
11396;SDS011;5754;43.726;7.416;2023-04-25T02:18:44;16.97;;;3.80;;
11396;SDS011;5754;43.726;7.416;2023-04-25T02:21:19;17.13;;;3.97;;
11396;SDS011;5754;43.726;7.416;2023-04-25T02:23:53;13.90;;;4.60;;
11396;SDS011;5754;43.726;7.416;2023-04-25T02:26:28;16.60;;;3.97;;
11396;SDS011;5754;43.726;7.416;2023-04-25T02:29:03;13.03;;;4.17;;
11396;SDS011;5754;43.726;7.416;2023-04-25T02:31:38;16.87;;;4.27;;
11396;SDS011;5754;43.726;7.416;2023-04-25T02:34:14;18.77;;;4.00;;
11396;SDS011;5754;43.726;7.416;2023-04-25T02:36:49;13.37;;;3.50;;
11396;SDS011;5754;43.726;7.416;2023-04-25T02:39:27;15.20;;;3.57;;
11396;SDS011;5754;43.726;7.416;2023-04-25T02:42:02;12.63;;;3.50;;
11396;SDS011;5754;43.726;7.416;2023-04-25T02:44:36;17.13;;;4.13;;
11396;SDS011;5754;43.726;7.416;2023-04-25T02:47:11;15.67;;;4.30;;
11396;SDS011;5754;43.726;7.416;2023-04-25T02:49:46;13.60;;;4.10;;
11396;SDS011;5754;43.726;7.416;2023-04-25T02:52:20;14.60;;;4.60;;
11396;SDS011;5754;43.726;7.416;2023-04-25T02:55:01;17.53;;;4.50;;
11396;SDS011;5754;43.726;7.416;2023-04-25T02:57:36;16.17;;;4.10;;
11396;SDS011;5754;43.726;7.416;2023-04-25T03:00:12;19.13;;;4.20;;
11396;SDS011;5754;43.726;7.416;2023-04-25T03:02:48;16.13;;;4.57;;
11396;SDS011;5754;43.726;7.416;2023-04-25T03:05:23;11.40;;;4.00;;
11396;SDS011;5754;43.726;7.416;2023-04-25T03:07:58;13.50;;;3.70;;
11396;SDS011;5754;43.726;7.416;2023-04-25T03:10:34;15.90;;;4.33;;
11396;SDS011;5754;43.726;7.416;2023-04-25T03:13:11;15.13;;;4.13;;
11396;SDS011;5754;43.726;7.416;2023-04-25T03:15:47;13.93;;;4.50;;
11396;SDS011;5754;43.726;7.416;2023-04-25T03:18:22;14.13;;;3.97;;
11396;SDS011;5754;43.726;7.416;2023-04-25T03:20:56;14.97;;;3.70;;
11396;SDS011;5754;43.726;7.416;2023-04-25T03:23:30;10.73;;;3.60;;
11396;SDS011;5754;43.726;7.416;2023-04-25T03:26:05;16.80;;;4.33;;
11396;SDS011;5754;43.726;7.416;2023-04-25T03:28:39;13.67;;;3.80;;
11396;SDS011;5754;43.726;7.416;2023-04-25T03:31:14;15.00;;;4.40;;
11396;SDS011;5754;43.726;7.416;2023-04-25T03:33:48;12.07;;;4.07;;
11396;SDS011;5754;43.726;7.416;2023-04-25T03:36:23;16.67;;;4.03;;
11396;SDS011;5754;43.726;7.416;2023-04-25T03:38:58;14.63;;;4.60;;
11396;SDS011;5754;43.726;7.416;2023-04-25T03:41:33;15.40;;;4.10;;
11396;SDS011;5754;43.726;7.416;2023-04-25T03:44:12;14.93;;;3.80;;
11396;SDS011;5754;43.726;7.416;2023-04-25T03:46:46;14.80;;;3.83;;
11396;SDS011;5754;43.726;7.416;2023-04-25T03:49:22;14.10;;;4.10;;
11396;SDS011;5754;43.726;7.416;2023-04-25T03:52:01;17.47;;;3.80;;
11396;SDS011;5754;43.726;7.416;2023-04-25T03:54:41;15.50;;;4.10;;
11396;SDS011;5754;43.726;7.416;2023-04-25T03:57:19;14.37;;;4.23;;
11396;SDS011;5754;43.726;7.416;2023-04-25T03:59:56;13.37;;;3.73;;
11396;SDS011;5754;43.726;7.416;2023-04-25T04:02:31;14.67;;;4.13;;
11396;SDS011;5754;43.726;7.416;2023-04-25T04:05:06;12.70;;;3.97;;
11396;SDS011;5754;43.726;7.416;2023-04-25T04:07:44;13.00;;;3.73;;
11396;SDS011;5754;43.726;7.416;2023-04-25T04:10:19;18.13;;;4.07;;
11396;SDS011;5754;43.726;7.416;2023-04-25T04:12:53;18.23;;;4.60;;
11396;SDS011;5754;43.726;7.416;2023-04-25T04:15:28;14.10;;;4.20;;
11396;SDS011;5754;43.726;7.416;2023-04-25T04:18:06;15.00;;;4.00;;
11396;SDS011;5754;43.726;7.416;2023-04-25T04:20:41;11.60;;;3.70;;
11396;SDS011;5754;43.726;7.416;2023-04-25T04:23:15;12.53;;;3.53;;
11396;SDS011;5754;43.726;7.416;2023-04-25T04:25:49;11.60;;;3.33;;
11396;SDS011;5754;43.726;7.416;2023-04-25T04:29:56;14.80;;;3.83;;
11396;SDS011;5754;43.726;7.416;2023-04-25T04:32:45;14.73;;;3.87;;
11396;SDS011;5754;43.726;7.416;2023-04-25T04:35:22;11.73;;;3.90;;
11396;SDS011;5754;43.726;7.416;2023-04-25T04:37:57;14.50;;;3.67;;
11396;SDS011;5754;43.726;7.416;2023-04-25T04:40:35;12.27;;;3.60;;
11396;SDS011;5754;43.726;7.416;2023-04-25T04:43:22;11.93;;;3.77;;
11396;SDS011;5754;43.726;7.416;2023-04-25T04:46:09;13.60;;;4.03;;
11396;SDS011;5754;43.726;7.416;2023-04-25T04:51:20;13.40;;;4.20;;
11396;SDS011;5754;43.726;7.416;2023-04-25T04:54:28;16.63;;;4.00;;
11396;SDS011;5754;43.726;7.416;2023-04-25T04:57:22;14.93;;;3.97;;
11396;SDS011;5754;43.726;7.416;2023-04-25T05:00:10;11.90;;;3.67;;
11396;SDS011;5754;43.726;7.416;2023-04-25T05:03:03;15.33;;;4.03;;
11396;SDS011;5754;43.726;7.416;2023-04-25T05:05:57;14.73;;;3.63;;
11396;SDS011;5754;43.726;7.416;2023-04-25T05:08:57;12.50;;;4.27;;
11396;SDS011;5754;43.726;7.416;2023-04-25T05:11:50;16.27;;;4.13;;
11396;SDS011;5754;43.726;7.416;2023-04-25T05:14:33;15.47;;;4.20;;
11396;SDS011;5754;43.726;7.416;2023-04-25T05:17:18;14.13;;;4.53;;
11396;SDS011;5754;43.726;7.416;2023-04-25T05:20:11;15.37;;;3.90;;
11396;SDS011;5754;43.726;7.416;2023-04-25T05:29:35;16.07;;;4.37;;
11396;SDS011;5754;43.726;7.416;2023-04-25T05:32:28;13.93;;;4.37;;
11396;SDS011;5754;43.726;7.416;2023-04-25T05:35:03;12.37;;;4.20;;
11396;SDS011;5754;43.726;7.416;2023-04-25T05:37:46;13.07;;;4.47;;
11396;SDS011;5754;43.726;7.416;2023-04-25T05:40:22;16.53;;;4.67;;
11396;SDS011;5754;43.726;7.416;2023-04-25T05:43:03;17.63;;;4.60;;
11396;SDS011;5754;43.726;7.416;2023-04-25T05:45:50;14.53;;;3.77;;
11396;SDS011;5754;43.726;7.416;2023-04-25T05:48:46;12.90;;;3.57;;
11396;SDS011;5754;43.726;7.416;2023-04-25T05:52:52;12.83;;;4.03;;
11396;SDS011;5754;43.726;7.416;2023-04-25T05:55:39;16.00;;;4.23;;
11396;SDS011;5754;43.726;7.416;2023-04-25T05:59:14;14.07;;;3.53;;
11396;SDS011;5754;43.726;7.416;2023-04-25T06:01:48;17.67;;;4.27;;
11396;SDS011;5754;43.726;7.416;2023-04-25T06:04:23;13.23;;;4.17;;
11396;SDS011;5754;43.726;7.416;2023-04-25T06:06:57;11.63;;;3.80;;
11396;SDS011;5754;43.726;7.416;2023-04-25T06:09:33;13.03;;;3.70;;
11396;SDS011;5754;43.726;7.416;2023-04-25T06:12:08;12.60;;;4.03;;
11396;SDS011;5754;43.726;7.416;2023-04-25T06:14:43;10.82;;;3.60;;
11396;SDS011;5754;43.726;7.416;2023-04-25T06:17:17;13.02;;;3.80;;
11396;SDS011;5754;43.726;7.416;2023-04-25T06:19:51;12.60;;;3.92;;
11396;SDS011;5754;43.726;7.416;2023-04-25T06:22:26;10.07;;;3.83;;
11396;SDS011;5754;43.726;7.416;2023-04-25T06:25:00;11.40;;;3.62;;
11396;SDS011;5754;43.726;7.416;2023-04-25T06:27:39;13.32;;;4.37;;
11396;SDS011;5754;43.726;7.416;2023-04-25T06:30:13;14.35;;;4.75;;
11396;SDS011;5754;43.726;7.416;2023-04-25T06:32:49;11.20;;;4.10;;
11396;SDS011;5754;43.726;7.416;2023-04-25T06:35:23;11.93;;;3.95;;
11396;SDS011;5754;43.726;7.416;2023-04-25T06:37:58;11.07;;;4.45;;
11396;SDS011;5754;43.726;7.416;2023-04-25T06:40:33;11.38;;;4.00;;
11396;SDS011;5754;43.726;7.416;2023-04-25T06:43:08;14.85;;;4.22;;
11396;SDS011;5754;43.726;7.416;2023-04-25T06:49:16;10.80;;;3.95;;
11396;SDS011;5754;43.726;7.416;2023-04-25T06:51:52;8.13;;;3.40;;
11396;SDS011;5754;43.726;7.416;2023-04-25T06:54:26;12.20;;;4.20;;
11396;SDS011;5754;43.726;7.416;2023-04-25T06:57:09;13.07;;;4.62;;
11396;SDS011;5754;43.726;7.416;2023-04-25T06:59:43;13.25;;;4.50;;
11396;SDS011;5754;43.726;7.416;2023-04-25T07:02:19;15.40;;;4.70;;
11396;SDS011;5754;43.726;7.416;2023-04-25T07:04:55;14.30;;;4.97;;
11396;SDS011;5754;43.726;7.416;2023-04-25T07:07:33;13.57;;;4.68;;
11396;SDS011;5754;43.726;7.416;2023-04-25T07:10:08;15.43;;;4.95;;
11396;SDS011;5754;43.726;7.416;2023-04-25T07:12:43;16.17;;;4.43;;
11396;SDS011;5754;43.726;7.416;2023-04-25T07:15:18;18.30;;;5.03;;
11396;SDS011;5754;43.726;7.416;2023-04-25T07:17:53;13.70;;;4.70;;
11396;SDS011;5754;43.726;7.416;2023-04-25T07:20:27;19.50;;;5.22;;
11396;SDS011;5754;43.726;7.416;2023-04-25T07:23:04;18.02;;;4.60;;
11396;SDS011;5754;43.726;7.416;2023-04-25T07:25:39;13.10;;;5.03;;
11396;SDS011;5754;43.726;7.416;2023-04-25T07:28:15;15.95;;;5.05;;
11396;SDS011;5754;43.726;7.416;2023-04-25T07:30:50;14.23;;;4.85;;
11396;SDS011;5754;43.726;7.416;2023-04-25T07:33:25;18.87;;;5.20;;
11396;SDS011;5754;43.726;7.416;2023-04-25T07:35:59;15.35;;;4.97;;
11396;SDS011;5754;43.726;7.416;2023-04-25T07:38:35;15.23;;;4.72;;
11396;SDS011;5754;43.726;7.416;2023-04-25T07:41:09;13.07;;;4.37;;
11396;SDS011;5754;43.726;7.416;2023-04-25T07:43:44;12.45;;;4.65;;
11396;SDS011;5754;43.726;7.416;2023-04-25T07:46:19;18.52;;;5.00;;
11396;SDS011;5754;43.726;7.416;2023-04-25T07:48:55;18.05;;;5.65;;
11396;SDS011;5754;43.726;7.416;2023-04-25T07:51:30;11.05;;;4.05;;
11396;SDS011;5754;43.726;7.416;2023-04-25T07:54:08;14.35;;;4.35;;
11396;SDS011;5754;43.726;7.416;2023-04-25T07:56:43;16.87;;;5.43;;
11396;SDS011;5754;43.726;7.416;2023-04-25T07:59:25;15.93;;;4.95;;
11396;SDS011;5754;43.726;7.416;2023-04-25T08:02:01;16.35;;;5.35;;
11396;SDS011;5754;43.726;7.416;2023-04-25T08:04:36;13.77;;;4.50;;
11396;SDS011;5754;43.726;7.416;2023-04-25T08:07:14;13.70;;;5.12;;
11396;SDS011;5754;43.726;7.416;2023-04-25T08:09:56;13.95;;;4.22;;
11396;SDS011;5754;43.726;7.416;2023-04-25T08:12:34;16.50;;;4.80;;
11396;SDS011;5754;43.726;7.416;2023-04-25T08:15:12;16.62;;;5.40;;
11396;SDS011;5754;43.726;7.416;2023-04-25T08:17:47;13.93;;;4.35;;
11396;SDS011;5754;43.726;7.416;2023-04-25T08:20:25;14.87;;;4.75;;
11396;SDS011;5754;43.726;7.416;2023-04-25T08:23:01;14.60;;;4.75;;
11396;SDS011;5754;43.726;7.416;2023-04-25T08:25:47;16.70;;;4.60;;
11396;SDS011;5754;43.726;7.416;2023-04-25T08:28:22;14.57;;;5.25;;
11396;SDS011;5754;43.726;7.416;2023-04-25T08:30:58;15.68;;;4.43;;
11396;SDS011;5754;43.726;7.416;2023-04-25T08:33:37;18.60;;;5.07;;
11396;SDS011;5754;43.726;7.416;2023-04-25T08:38:03;20.73;;;5.25;;
11396;SDS011;5754;43.726;7.416;2023-04-25T08:40:39;16.95;;;4.10;;
11396;SDS011;5754;43.726;7.416;2023-04-25T08:43:22;18.23;;;4.35;;
11396;SDS011;5754;43.726;7.416;2023-04-25T08:46:01;20.10;;;4.95;;
11396;SDS011;5754;43.726;7.416;2023-04-25T08:49:41;14.98;;;4.57;;
11396;SDS011;5754;43.726;7.416;2023-04-25T08:52:20;15.35;;;4.68;;
11396;SDS011;5754;43.726;7.416;2023-04-25T08:54:56;15.40;;;4.65;;
11396;SDS011;5754;43.726;7.416;2023-04-25T08:57:35;16.70;;;4.03;;
11396;SDS011;5754;43.726;7.416;2023-04-25T09:00:11;16.60;;;4.93;;
11396;SDS011;5754;43.726;7.416;2023-04-25T09:02:48;17.07;;;4.60;;
11396;SDS011;5754;43.726;7.416;2023-04-25T09:05:23;20.27;;;4.97;;
11396;SDS011;5754;43.726;7.416;2023-04-25T09:07:58;17.87;;;4.78;;
11396;SDS011;5754;43.726;7.416;2023-04-25T09:10:34;18.25;;;4.80;;
11396;SDS011;5754;43.726;7.416;2023-04-25T09:13:11;18.77;;;4.67;;
11396;SDS011;5754;43.726;7.416;2023-04-25T09:16:05;17.75;;;4.30;;
11396;SDS011;5754;43.726;7.416;2023-04-25T09:19:36;18.65;;;4.85;;
11396;SDS011;5754;43.726;7.416;2023-04-25T09:22:21;18.45;;;4.97;;
11396;SDS011;5754;43.726;7.416;2023-04-25T09:24:57;16.45;;;5.03;;
11396;SDS011;5754;43.726;7.416;2023-04-25T09:27:33;17.70;;;5.17;;
11396;SDS011;5754;43.726;7.416;2023-04-25T09:30:13;18.17;;;4.83;;
11396;SDS011;5754;43.726;7.416;2023-04-25T09:34:41;20.13;;;4.73;;
11396;SDS011;5754;43.726;7.416;2023-04-25T09:37:23;15.93;;;4.57;;
11396;SDS011;5754;43.726;7.416;2023-04-25T09:41:53;19.30;;;4.97;;
11396;SDS011;5754;43.726;7.416;2023-04-25T09:44:29;15.53;;;4.43;;
11396;SDS011;5754;43.726;7.416;2023-04-25T09:47:04;18.73;;;4.67;;
11396;SDS011;5754;43.726;7.416;2023-04-25T09:49:43;16.00;;;4.40;;
11396;SDS011;5754;43.726;7.416;2023-04-25T09:52:19;19.37;;;4.87;;
11396;SDS011;5754;43.726;7.416;2023-04-25T09:55:16;19.50;;;4.80;;
11396;SDS011;5754;43.726;7.416;2023-04-25T09:57:52;17.57;;;4.90;;
11396;SDS011;5754;43.726;7.416;2023-04-25T10:00:26;16.43;;;4.43;;
11396;SDS011;5754;43.726;7.416;2023-04-25T10:03:01;14.13;;;4.50;;
11396;SDS011;5754;43.726;7.416;2023-04-25T10:05:52;15.97;;;4.33;;
11396;SDS011;5754;43.726;7.416;2023-04-25T10:08:30;16.73;;;4.17;;
11396;SDS011;5754;43.726;7.416;2023-04-25T10:11:06;15.83;;;4.73;;
11396;SDS011;5754;43.726;7.416;2023-04-25T10:13:41;18.23;;;4.80;;
11396;SDS011;5754;43.726;7.416;2023-04-25T10:16:16;16.00;;;4.73;;
11396;SDS011;5754;43.726;7.416;2023-04-25T10:18:52;15.53;;;4.77;;
11396;SDS011;5754;43.726;7.416;2023-04-25T10:21:27;16.27;;;5.57;;
11396;SDS011;5754;43.726;7.416;2023-04-25T10:24:02;18.57;;;4.93;;
11396;SDS011;5754;43.726;7.416;2023-04-25T10:26:37;15.77;;;4.73;;
11396;SDS011;5754;43.726;7.416;2023-04-25T10:29:11;17.17;;;4.63;;
11396;SDS011;5754;43.726;7.416;2023-04-25T10:31:46;17.73;;;5.33;;
11396;SDS011;5754;43.726;7.416;2023-04-25T10:34:25;17.57;;;4.43;;
11396;SDS011;5754;43.726;7.416;2023-04-25T10:37:12;15.30;;;4.90;;
11396;SDS011;5754;43.726;7.416;2023-04-25T10:39:49;12.53;;;3.90;;
11396;SDS011;5754;43.726;7.416;2023-04-25T10:42:26;16.93;;;4.47;;
11396;SDS011;5754;43.726;7.416;2023-04-25T10:45:06;16.60;;;4.43;;
11396;SDS011;5754;43.726;7.416;2023-04-25T10:47:43;20.20;;;4.67;;
11396;SDS011;5754;43.726;7.416;2023-04-25T10:50:18;17.87;;;4.90;;
11396;SDS011;5754;43.726;7.416;2023-04-25T10:52:53;17.67;;;4.77;;
11396;SDS011;5754;43.726;7.416;2023-04-25T10:55:27;19.17;;;5.00;;
11396;SDS011;5754;43.726;7.416;2023-04-25T10:58:22;16.07;;;5.13;;
11396;SDS011;5754;43.726;7.416;2023-04-25T11:00:57;17.53;;;5.03;;
11396;SDS011;5754;43.726;7.416;2023-04-25T11:03:31;17.63;;;5.40;;
11396;SDS011;5754;43.726;7.416;2023-04-25T11:06:06;13.83;;;4.47;;
11396;SDS011;5754;43.726;7.416;2023-04-25T11:08:48;19.43;;;4.60;;
11396;SDS011;5754;43.726;7.416;2023-04-25T11:11:23;15.00;;;4.57;;
11396;SDS011;5754;43.726;7.416;2023-04-25T11:13:58;14.43;;;4.23;;
11396;SDS011;5754;43.726;7.416;2023-04-25T11:16:33;13.47;;;4.50;;
11396;SDS011;5754;43.726;7.416;2023-04-25T11:19:09;15.00;;;4.23;;
11396;SDS011;5754;43.726;7.416;2023-04-25T11:21:44;14.40;;;4.40;;
11396;SDS011;5754;43.726;7.416;2023-04-25T11:24:18;15.93;;;4.70;;
11396;SDS011;5754;43.726;7.416;2023-04-25T11:26:53;17.03;;;4.83;;
11396;SDS011;5754;43.726;7.416;2023-04-25T11:29:28;15.00;;;4.77;;
11396;SDS011;5754;43.726;7.416;2023-04-25T11:32:03;11.33;;;4.30;;
11396;SDS011;5754;43.726;7.416;2023-04-25T11:34:38;16.07;;;4.70;;
11396;SDS011;5754;43.726;7.416;2023-04-25T11:37:14;17.37;;;4.30;;
11396;SDS011;5754;43.726;7.416;2023-04-25T11:39:48;12.40;;;3.97;;
11396;SDS011;5754;43.726;7.416;2023-04-25T11:42:23;11.13;;;4.07;;
11396;SDS011;5754;43.726;7.416;2023-04-25T11:44:59;11.87;;;4.00;;
11396;SDS011;5754;43.726;7.416;2023-04-25T11:47:34;14.20;;;4.33;;
11396;SDS011;5754;43.726;7.416;2023-04-25T11:50:09;16.23;;;4.73;;
11396;SDS011;5754;43.726;7.416;2023-04-25T11:52:45;14.00;;;3.80;;
11396;SDS011;5754;43.726;7.416;2023-04-25T11:55:20;13.60;;;3.83;;
11396;SDS011;5754;43.726;7.416;2023-04-25T12:00:41;15.30;;;4.43;;
11396;SDS011;5754;43.726;7.416;2023-04-25T12:03:17;14.23;;;4.20;;
11396;SDS011;5754;43.726;7.416;2023-04-25T12:05:51;15.27;;;4.20;;
11396;SDS011;5754;43.726;7.416;2023-04-25T12:08:26;17.10;;;4.30;;
11396;SDS011;5754;43.726;7.416;2023-04-25T12:11:00;18.57;;;4.87;;
11396;SDS011;5754;43.726;7.416;2023-04-25T12:13:35;13.90;;;3.87;;
11396;SDS011;5754;43.726;7.416;2023-04-25T12:16:09;19.47;;;4.63;;
11396;SDS011;5754;43.726;7.416;2023-04-25T12:18:44;14.13;;;3.83;;
11396;SDS011;5754;43.726;7.416;2023-04-25T12:21:20;17.20;;;4.33;;
11396;SDS011;5754;43.726;7.416;2023-04-25T12:23:55;19.57;;;4.53;;
11396;SDS011;5754;43.726;7.416;2023-04-25T12:26:45;19.07;;;4.73;;
11396;SDS011;5754;43.726;7.416;2023-04-25T12:29:20;16.37;;;4.17;;
11396;SDS011;5754;43.726;7.416;2023-04-25T12:31:55;15.43;;;4.20;;
11396;SDS011;5754;43.726;7.416;2023-04-25T12:34:30;18.90;;;4.37;;
11396;SDS011;5754;43.726;7.416;2023-04-25T12:37:09;15.20;;;4.63;;
11396;SDS011;5754;43.726;7.416;2023-04-25T12:39:43;18.00;;;4.60;;
11396;SDS011;5754;43.726;7.416;2023-04-25T12:42:18;15.37;;;4.30;;
11396;SDS011;5754;43.726;7.416;2023-04-25T12:44:52;18.87;;;4.90;;
11396;SDS011;5754;43.726;7.416;2023-04-25T12:47:27;14.50;;;4.50;;
11396;SDS011;5754;43.726;7.416;2023-04-25T12:50:01;18.50;;;5.27;;
11396;SDS011;5754;43.726;7.416;2023-04-25T12:52:36;15.50;;;4.40;;
11396;SDS011;5754;43.726;7.416;2023-04-25T12:55:10;24.17;;;5.30;;
11396;SDS011;5754;43.726;7.416;2023-04-25T12:57:45;13.97;;;4.43;;
11396;SDS011;5754;43.726;7.416;2023-04-25T13:00:20;20.17;;;4.50;;
11396;SDS011;5754;43.726;7.416;2023-04-25T13:02:55;17.70;;;5.17;;
11396;SDS011;5754;43.726;7.416;2023-04-25T13:05:30;20.40;;;4.50;;
11396;SDS011;5754;43.726;7.416;2023-04-25T13:08:04;16.33;;;4.47;;
11396;SDS011;5754;43.726;7.416;2023-04-25T13:10:38;18.87;;;4.70;;
11396;SDS011;5754;43.726;7.416;2023-04-25T13:13:13;19.17;;;5.40;;
11396;SDS011;5754;43.726;7.416;2023-04-25T13:15:47;20.37;;;4.90;;
11396;SDS011;5754;43.726;7.416;2023-04-25T13:18:21;15.53;;;4.60;;
11396;SDS011;5754;43.726;7.416;2023-04-25T13:21:00;18.97;;;5.20;;
11396;SDS011;5754;43.726;7.416;2023-04-25T13:23:34;16.17;;;4.73;;
11396;SDS011;5754;43.726;7.416;2023-04-25T13:26:09;16.60;;;4.90;;
11396;SDS011;5754;43.726;7.416;2023-04-25T13:28:43;14.40;;;4.70;;
11396;SDS011;5754;43.726;7.416;2023-04-25T13:31:18;17.83;;;4.47;;
11396;SDS011;5754;43.726;7.416;2023-04-25T13:33:53;15.90;;;4.93;;
11396;SDS011;5754;43.726;7.416;2023-04-25T13:36:27;11.33;;;3.97;;
11396;SDS011;5754;43.726;7.416;2023-04-25T13:39:01;9.50;;;3.90;;
11396;SDS011;5754;43.726;7.416;2023-04-25T13:41:37;13.23;;;4.13;;
11396;SDS011;5754;43.726;7.416;2023-04-25T13:44:12;15.93;;;3.67;;
11396;SDS011;5754;43.726;7.416;2023-04-25T13:46:49;13.00;;;3.83;;
11396;SDS011;5754;43.726;7.416;2023-04-25T13:49:24;16.00;;;4.07;;
11396;SDS011;5754;43.726;7.416;2023-04-25T13:51:58;15.07;;;3.77;;
11396;SDS011;5754;43.726;7.416;2023-04-25T13:54:33;10.77;;;3.90;;
11396;SDS011;5754;43.726;7.416;2023-04-25T13:57:09;14.20;;;3.73;;
11396;SDS011;5754;43.726;7.416;2023-04-25T13:59:44;13.30;;;3.87;;
11396;SDS011;5754;43.726;7.416;2023-04-25T14:02:20;11.60;;;3.70;;
11396;SDS011;5754;43.726;7.416;2023-04-25T14:04:54;13.83;;;3.13;;
11396;SDS011;5754;43.726;7.416;2023-04-25T14:07:30;10.97;;;3.40;;
11396;SDS011;5754;43.726;7.416;2023-04-25T14:10:05;8.60;;;3.03;;
11396;SDS011;5754;43.726;7.416;2023-04-25T14:12:40;9.83;;;2.63;;
11396;SDS011;5754;43.726;7.416;2023-04-25T14:15:15;9.57;;;2.80;;
11396;SDS011;5754;43.726;7.416;2023-04-25T14:17:49;11.23;;;2.93;;
11396;SDS011;5754;43.726;7.416;2023-04-25T14:20:24;9.27;;;3.77;;
11396;SDS011;5754;43.726;7.416;2023-04-25T14:23:00;10.17;;;3.47;;
11396;SDS011;5754;43.726;7.416;2023-04-25T14:25:34;10.70;;;2.70;;
11396;SDS011;5754;43.726;7.416;2023-04-25T14:28:10;7.27;;;2.90;;
11396;SDS011;5754;43.726;7.416;2023-04-25T14:30:44;11.77;;;3.37;;
11396;SDS011;5754;43.726;7.416;2023-04-25T14:33:18;7.70;;;2.80;;
11396;SDS011;5754;43.726;7.416;2023-04-25T14:35:53;8.37;;;2.80;;
11396;SDS011;5754;43.726;7.416;2023-04-25T14:38:27;7.17;;;2.70;;
11396;SDS011;5754;43.726;7.416;2023-04-25T14:41:02;10.27;;;3.07;;
11396;SDS011;5754;43.726;7.416;2023-04-25T14:43:36;7.77;;;3.20;;
11396;SDS011;5754;43.726;7.416;2023-04-25T14:46:13;9.13;;;2.90;;
11396;SDS011;5754;43.726;7.416;2023-04-25T14:48:47;8.57;;;2.60;;
11396;SDS011;5754;43.726;7.416;2023-04-25T14:51:21;8.77;;;3.03;;
11396;SDS011;5754;43.726;7.416;2023-04-25T14:53:56;8.87;;;2.63;;
11396;SDS011;5754;43.726;7.416;2023-04-25T14:56:31;11.17;;;3.53;;
11396;SDS011;5754;43.726;7.416;2023-04-25T14:59:06;8.27;;;3.03;;
11396;SDS011;5754;43.726;7.416;2023-04-25T15:01:40;11.50;;;3.10;;
11396;SDS011;5754;43.726;7.416;2023-04-25T15:04:14;11.50;;;2.67;;
11396;SDS011;5754;43.726;7.416;2023-04-25T15:06:51;9.27;;;2.50;;
11396;SDS011;5754;43.726;7.416;2023-04-25T15:09:25;9.00;;;2.77;;
11396;SDS011;5754;43.726;7.416;2023-04-25T15:12:00;6.17;;;2.53;;
11396;SDS011;5754;43.726;7.416;2023-04-25T15:14:35;6.80;;;2.70;;
11396;SDS011;5754;43.726;7.416;2023-04-25T15:17:09;8.47;;;3.10;;
11396;SDS011;5754;43.726;7.416;2023-04-25T15:19:43;6.67;;;2.73;;
11396;SDS011;5754;43.726;7.416;2023-04-25T15:22:17;7.47;;;2.90;;
11396;SDS011;5754;43.726;7.416;2023-04-25T15:24:52;6.87;;;2.43;;
11396;SDS011;5754;43.726;7.416;2023-04-25T15:27:27;6.00;;;2.63;;
11396;SDS011;5754;43.726;7.416;2023-04-25T15:30:04;7.13;;;2.93;;
11396;SDS011;5754;43.726;7.416;2023-04-25T15:32:46;7.50;;;2.60;;
11396;SDS011;5754;43.726;7.416;2023-04-25T15:35:21;6.83;;;2.70;;
11396;SDS011;5754;43.726;7.416;2023-04-25T15:37:55;6.23;;;2.20;;
11396;SDS011;5754;43.726;7.416;2023-04-25T15:40:29;7.70;;;2.73;;
11396;SDS011;5754;43.726;7.416;2023-04-25T15:43:05;10.13;;;3.37;;
11396;SDS011;5754;43.726;7.416;2023-04-25T15:45:40;7.53;;;2.60;;
11396;SDS011;5754;43.726;7.416;2023-04-25T15:48:14;8.23;;;2.63;;
11396;SDS011;5754;43.726;7.416;2023-04-25T15:50:49;9.93;;;3.20;;
11396;SDS011;5754;43.726;7.416;2023-04-25T15:53:23;5.80;;;2.83;;
11396;SDS011;5754;43.726;7.416;2023-04-25T15:55:58;7.80;;;2.67;;
11396;SDS011;5754;43.726;7.416;2023-04-25T15:58:32;5.13;;;2.73;;
11396;SDS011;5754;43.726;7.416;2023-04-25T16:01:07;7.90;;;2.60;;
11396;SDS011;5754;43.726;7.416;2023-04-25T16:03:42;7.23;;;2.47;;
11396;SDS011;5754;43.726;7.416;2023-04-25T16:06:17;8.17;;;2.60;;
11396;SDS011;5754;43.726;7.416;2023-04-25T16:08:51;5.97;;;2.70;;
11396;SDS011;5754;43.726;7.416;2023-04-25T16:11:25;7.77;;;3.13;;
11396;SDS011;5754;43.726;7.416;2023-04-25T16:14:00;6.53;;;2.80;;
11396;SDS011;5754;43.726;7.416;2023-04-25T16:16:34;7.80;;;2.73;;